Aviation Digital Data Service (ADDS)

Output produced by METARs form (1822 UTC 22 November 2017)
found at http://www.aviationweather.gov/adds/metars/
 
TAF SCFA 221636Z 2218/2318 21014KT 9999 FEW025 TX19/2218Z TN15/2306Z 
     BECMG 2300/2302 18005KT BKN020 
     BECMG 2306/2308 31004KT 
     BECMG 2315/2317 21014KT FEW025
       
TAF SCAR 221632Z 2218/2318 22014KT CAVOK TX21/2218Z TN16/2306Z 
     BECMG 2300/2302 18004KT OVC025 
     BECMG 2309/2311 14004KT 
     BECMG 2312/2314 20004KT 
     BECMG 2316/2318 22014KT CAVOK
       
TAF SCBA 221659Z 2218/2318 31030KT 9999 FEW040 TX14/2218Z TN02/2310Z 
     BECMG 2304/2306 30015KT
       
TAF SCCF 221635Z 2218/2318 27022KT CAVOK TX26/2218Z TN02/2306Z 
     BECMG 2300/2302 24010KT 
     BECMG 2303/2305 11015KT 
     BECMG 2316/2318 27022KT
       
TAF SCIE 221610Z 2218/2318 24015KT CAVOK TX23/2218Z TN11/2310Z 
     BECMG 2300/2302 20008KT 
     BECMG 2308/2310 16004KT 
     BECMG 2313/2315 21006KT
       
TAF SCAT 221637Z 2218/2318 32014KT CAVOK TX21/2218Z TN12/2306Z 
     BECMG 2300/2302 23004KT 9999 OVC009 
     BECMG 2309/2311 33004KT 
     BECMG 2316/2318 33014KT CAVOK
       
TAF SCDA 221633Z 2218/2318 22016KT CAVOK TX21/2218Z TN17/2306Z 
     BECMG 2300/2302 19010KT 9999 BKN030 
     BECMG 2303/2305 31004KT 
     BECMG 2308/2310 19004KT 
     BECMG 2316/2318 22015KT CAVOK
       
TAF SCSE 221610Z 2218/2318 28010KT 9999 SCT015 TX21/2218Z TN13/2310Z 
     BECMG 2218/2220 CAVOK 
     BECMG 2300/2302 25004KT 
     BECMG 2308/2310 VRB03KT 4000 BR SCT005 BKN008 
     BECMG 2314/2316 28008KT BKN013
       
TAF SCJO 221007Z 2212/2224 18005KT 9999 BKN025 TN09/2212Z TX18/2218Z 
     BECMG 2214/2216 SCT030 
     BECMG 2217/2219 CAVOK 
     BECMG 2221/2223 BKN040
       
TAF SCTE 221659Z 2218/2318 17007KT 9999 BKN040 TX16/2218Z TN05/2310Z 
     BECMG 2300/2302 VRB02 
     PROB30 
     TEMPO 2306/2309 3000 BR BKN005
       
TAF COR SCNT 221150Z 2212/2300 26020G30KT 9000 FEW020 BKN030 TX11/2216Z TN03/2300Z 
     BECMG 2216/2218 23020G30KT 8000 
     TEMPO 2217/2221 23030G40KT 
     TEMPO 2220/2300 6000 SHRASN BKN015
       
TAF COR SCCI 221647Z 2218/2318 22020G30KT 9999 BKN035 TN04/2310Z TX11/2218Z 
     TEMPO 2218/2300 22025G35KT 8000 -SHRA BKN030 
     BECMG 2221/2223 SCT045 
     BECMG 2309/2311 27020G30KT 
     BECMG 2312/2314 27025G35KT SCT035 BKN045 
     TEMPO 2312/2318 9000 -SHRA 
     BECMG 2315/2317 27030G40KT
       
TAF SCEL 221610Z 2218/2318 17010KT CAVOK TX34/2219Z TN14/2310Z 
     BECMG 2218/2220 21013KT 
     BECMG 2300/2302 16005KT 
     BECMG 2306/2308 VRB02KT 
     BECMG 2314/2316 17008KT
       
TAF SCVD 221007Z 2212/2224 20005KT 9999 BKN025 TN11/2212Z TX20/2218Z 
     BECMG 2214/2216 SCT030 
     BECMG 2217/2218 18012KT CAVOK